Time;durP1;ratioP1;P1;durP2;ratioP2;P2;SDS_P1;SDS_P2;PMS_P1;PMS_P2;Temp;Humidity;BMP_temperature;BMP_pressure;BME280_temperature;BME280_humidity;BME280_pressure;Samples;Min_cycle;Max_cycle;Signal;HPM_P1;HPM_P2
2021/12/26 00:01:23;;;;;;;10.37;9.27;;;;;;;4.90;100.00;95305.63;5032003;28;102207;-61
2021/12/26 00:03:51;;;;;;;10.23;8.80;;;;;;;4.91;100.00;95307.22;5032258;28;104997;-61
2021/12/26 00:06:25;;;;;;;12.43;9.73;;;;;;;4.94;100.00;95304.91;5031281;28;105455;-61
2021/12/26 00:08:55;;;;;;;9.87;8.63;;;;;;;4.97;100.00;95306.25;5032432;28;101948;-61
2021/12/26 00:11:23;;;;;;;10.53;9.43;;;;;;;4.98;100.00;95297.31;5047970;27;104990;-61
2021/12/26 00:13:50;;;;;;;10.97;9.47;;;;;;;5.01;100.00;95305.53;5011110;28;105944;-61
2021/12/26 00:16:19;;;;;;;10.37;9.30;;;;;;;5.04;100.00;95306.88;5031740;28;101870;-61
2021/12/26 00:18:47;;;;;;;10.87;9.37;;;;;;;5.01;100.00;95308.16;5031339;28;105109;-61
2021/12/26 00:21:15;;;;;;;10.60;9.13;;;;;;;5.04;100.00;95304.25;5031668;28;101969;-61
2021/12/26 00:23:43;;;;;;;11.27;9.67;;;;;;;4.99;100.00;95307.63;5032010;28;105389;-61
2021/12/26 00:26:13;;;;;;;11.60;10.27;;;;;;;4.91;100.00;95315.13;5031102;28;105837;-61
2021/12/26 00:28:45;;;;;;;10.73;9.40;;;;;;;4.87;100.00;95308.75;5030665;28;101906;-61
2021/12/26 00:31:13;;;;;;;11.90;10.70;;;;;;;4.85;100.00;95313.47;5031783;28;103469;-61
2021/12/26 00:33:41;;;;;;;11.73;10.40;;;;;;;4.90;100.00;95311.69;5029529;28;105831;-61
2021/12/26 00:36:23;;;;;;;13.00;11.00;;;;;;;4.87;100.00;95303.47;5030701;28;101903;-61
2021/12/26 00:38:50;;;;;;;12.50;10.90;;;;;;;4.83;100.00;95303.16;5033040;28;104806;-61
2021/12/26 00:41:17;;;;;;;13.80;11.90;;;;;;;4.84;100.00;95310.03;5030406;28;102008;-61
2021/12/26 00:43:45;;;;;;;13.43;11.77;;;;;;;4.84;100.00;95309.22;5030508;28;105287;-61
2021/12/26 00:46:28;;;;;;;12.03;10.70;;;;;;;4.79;100.00;95314.41;5030089;28;104812;-61
2021/12/26 00:48:57;;;;;;;12.50;10.67;;;;;;;4.75;100.00;95314.09;5031847;27;101916;-61
2021/12/26 00:51:24;;;;;;;12.70;10.80;;;;;;;4.65;100.00;95307.88;5030273;28;103821;-61
2021/12/26 00:53:51;;;;;;;12.37;10.17;;;;;;;4.64;100.00;95314.19;5029670;28;105073;-61
2021/12/26 00:56:19;;;;;;;11.37;10.07;;;;;;;4.61;100.00;95307.56;5030067;28;102186;-61
2021/12/26 00:58:55;;;;;;;10.20;9.17;;;;;;;4.63;100.00;95310.75;5029237;28;105095;-61
2021/12/26 01:01:23;;;;;;;10.80;9.50;;;;;;;4.58;100.00;95315.16;5033859;28;104357;-61
2021/12/26 01:03:50;;;;;;;10.60;8.90;;;;;;;4.52;100.00;95313.44;5030903;28;105014;-61
2021/12/26 01:06:34;;;;;;;9.60;8.60;;;;;;;4.50;100.00;95320.78;5030318;28;105817;-61
2021/12/26 01:09:02;;;;;;;8.60;7.70;;;;;;;4.46;100.00;95327.56;5030987;28;101759;-61
2021/12/26 01:11:36;;;;;;;9.67;8.67;;;;;;;4.43;100.00;95326.19;5030949;28;105288;-61
2021/12/26 01:14:07;;;;;;;9.07;8.17;;;;;;;4.38;100.00;95322.69;5030594;28;105484;-61
2021/12/26 01:17:13;;;;;;;9.37;8.40;;;;;;;4.37;100.00;95319.25;5010935;28;101767;-61
2021/12/26 01:19:55;;;;;;;8.73;7.83;;;;;;;4.35;100.00;95320.53;5048006;27;105163;-61
2021/12/26 01:22:26;;;;;;;8.90;8.00;;;;;;;4.31;100.00;95322.84;5030243;28;105340;-61
2021/12/26 01:25:38;;;;;;;9.20;7.97;;;;;;;4.27;100.00;95326.97;5034425;28;101770;-61
2021/12/26 01:31:34;;;;;;;9.07;8.10;;;;;;;4.30;100.00;95333.59;5030772;28;101986;-61
2021/12/26 01:34:11;;;;;;;8.67;7.77;;;;;;;4.26;100.00;95340.38;5030975;28;103551;-61
2021/12/26 01:36:53;;;;;;;10.00;8.97;;;;;;;4.24;100.00;95342.44;5030141;28;104886;-61
2021/12/26 01:39:41;;;;;;;10.40;9.00;;;;;;;4.18;100.00;95344.19;5026998;28;102065;-61
2021/12/26 01:42:17;;;;;;;11.20;9.50;;;;;;;4.13;100.00;95351.19;5010555;28;104653;-61
2021/12/26 01:45:20;;;;;;;10.80;9.40;;;;;;;4.09;100.00;95353.50;5022161;28;104022;-61
2021/12/26 01:47:59;;;;;;;10.60;9.33;;;;;;;4.10;100.00;95346.41;5030834;28;101820;-61
2021/12/26 01:50:26;;;;;;;10.77;9.63;;;;;;;4.10;100.00;95346.41;5033119;28;105435;-61
2021/12/26 01:52:55;;;;;;;11.27;9.37;;;;;;;4.00;100.00;95347.03;5030523;28;101995;-61
2021/12/26 01:55:26;;;;;;;10.47;9.37;;;;;;;3.98;100.00;95346.44;5022347;28;105171;-61
2021/12/26 01:58:12;;;;;;;11.00;9.63;;;;;;;3.99;100.00;95349.88;5030078;28;105525;-61
2021/12/26 02:00:42;;;;;;;12.20;9.93;;;;;;;4.05;100.00;95348.94;5030087;28;102017;-61
2021/12/26 02:03:09;;;;;;;12.73;10.63;;;;;;;4.11;100.00;95348.00;5030271;28;105148;-61
2021/12/26 02:05:46;;;;;;;11.80;9.90;;;;;;;4.18;100.00;95344.19;5029717;28;102746;-61
2021/12/26 02:08:15;;;;;;;12.10;10.30;;;;;;;4.21;100.00;95335.81;5030216;28;101795;-61
2021/12/26 02:10:45;;;;;;;12.10;10.80;;;;;;;4.22;100.00;95344.53;5031959;28;104076;-61
2021/12/26 02:13:13;;;;;;;13.33;10.60;;;;;;;4.21;100.00;95337.66;5030391;27;101991;-61
2021/12/26 02:15:41;;;;;;;13.00;10.73;;;;;;;4.17;100.00;95336.53;5028609;28;105215;-61
2021/12/26 02:18:13;;;;;;;13.07;11.37;;;;;;;4.13;100.00;95338.84;5028736;28;105789;-61
2021/12/26 02:20:59;;;;;;;13.13;11.57;;;;;;;4.07;100.00;95338.97;5028785;28;102041;-61
2021/12/26 02:23:40;;;;;;;13.20;11.63;;;;;;;3.98;100.00;95332.50;5029158;28;104747;-61
2021/12/26 02:29:11;;;;;;;11.67;10.40;;;;;;;3.97;100.00;95342.22;5029038;28;101798;-61
2021/12/26 02:31:38;;;;;;;13.97;11.60;;;;;;;3.96;100.00;95342.44;5028521;28;104823;-61
2021/12/26 02:34:06;;;;;;;12.73;11.10;;;;;;;4.02;100.00;95344.13;5031418;28;105230;-61
2021/12/26 02:36:34;;;;;;;14.97;11.03;;;;;;;4.06;100.00;95348.72;5014001;28;103859;-61
2021/12/26 02:39:02;;;;;;;13.17;11.43;;;;;;;4.14;100.00;95344.91;5028185;28;105377;-61
2021/12/26 02:41:30;;;;;;;16.40;11.20;;;;;;;4.12;100.00;95345.13;5028813;28;101845;-61
2021/12/26 02:43:58;;;;;;;14.27;10.47;;;;;;;4.09;100.00;95344.81;5028491;28;106436;-61
2021/12/26 02:46:26;;;;;;;13.20;10.20;;;;;;;4.09;100.00;95339.56;5027778;28;104193;-61
2021/12/26 02:48:53;;;;;;;13.73;10.63;;;;;;;4.09;100.00;95337.69;5028454;28;101993;-61
2021/12/26 02:51:21;;;;;;;15.13;11.13;;;;;;;4.06;100.00;95346.09;5028561;28;105181;-61
2021/12/26 02:53:50;;;;;;;14.63;10.93;;;;;;;4.03;100.00;95332.56;5028233;28;105420;-61
2021/12/26 02:56:18;;;;;;;14.13;10.30;;;;;;;3.99;100.00;95331.47;5016972;28;103307;-61
2021/12/26 02:58:47;;;;;;;13.77;10.60;;;;;;;3.91;100.00;95343.16;5027873;28;105524;-61
2021/12/26 03:01:19;;;;;;;13.77;10.30;;;;;;;3.96;100.00;95338.00;5028192;28;102033;-61
2021/12/26 03:03:46;;;;;;;14.83;10.80;;;;;;;4.02;100.00;95331.00;5028352;28;104941;-61
2021/12/26 03:06:25;;;;;;;12.37;10.37;;;;;;;3.96;100.00;95339.81;5027599;28;105586;-61
2021/12/26 03:08:55;;;;;;;13.67;10.80;;;;;;;3.81;100.00;95336.88;5028240;28;102300;-61
2021/12/26 03:11:22;;;;;;;14.40;11.07;;;;;;;3.77;100.00;95330.53;5028235;28;104137;-61
2021/12/26 03:13:50;;;;;;;12.50;10.23;;;;;;;3.62;100.00;95338.09;5027569;28;105009;-61
2021/12/26 03:17:10;;;;;;;15.07;10.20;;;;;;;3.59;100.00;95346.44;5028297;28;101919;-61
2021/12/26 03:19:38;;;;;;;11.90;9.70;;;;;;;3.61;100.00;95345.19;5030914;28;105478;-61
2021/12/26 03:22:06;;;;;;;13.90;10.30;;;;;;;3.52;100.00;95341.34;5028671;28;101910;-61
2021/12/26 03:25:15;;;;;;;14.23;10.27;;;;;;;3.46;100.00;95342.25;5027959;28;104979;-61
2021/12/26 03:27:55;;;;;;;13.77;10.60;;;;;;;3.35;100.00;95339.66;5027764;28;105380;-61
2021/12/26 03:30:24;;;;;;;15.13;9.87;;;;;;;3.42;100.00;95337.69;5027485;28;102066;-61
2021/12/26 03:32:52;;;;;;;13.73;9.57;;;;;;;3.42;100.00;95343.75;5028664;28;104786;-61
2021/12/26 03:35:21;;;;;;;12.60;10.00;;;;;;;3.36;100.00;95349.13;5029895;28;103084;-61
2021/12/26 03:37:49;;;;;;;14.23;10.17;;;;;;;3.36;100.00;95354.38;5026886;28;101862;-61
2021/12/26 03:40:39;;;;;;;13.33;9.93;;;;;;;3.36;100.00;95349.13;5028492;28;103421;-61
2021/12/26 03:43:08;;;;;;;14.13;10.23;;;;;;;3.51;100.00;95346.81;5031431;28;105101;-61
2021/12/26 03:46:06;;;;;;;16.67;11.00;;;;;;;3.37;100.00;95345.47;5027955;28;105087;-61
2021/12/26 03:48:34;;;;;;;14.60;10.57;;;;;;;3.25;100.00;95353.38;5027164;28;105079;-61
2021/12/26 03:51:02;;;;;;;13.90;9.83;;;;;;;3.28;100.00;95352.13;5027860;28;101672;-61
2021/12/26 03:53:29;;;;;;;16.43;10.60;;;;;;;3.38;100.00;95354.97;5028419;28;105097;-61
2021/12/26 03:56:33;;;;;;;17.57;10.43;;;;;;;3.32;100.00;95353.22;5027084;28;103901;-61
2021/12/26 03:59:15;;;;;;;15.43;9.83;;;;;;;3.33;100.00;95350.38;4984283;28;101884;-61
2021/12/26 04:01:42;;;;;;;14.27;9.67;;;;;;;3.35;100.00;95343.09;4975810;28;105345;-61
2021/12/26 04:04:14;;;;;;;17.37;10.67;;;;;;;3.37;100.00;95340.19;4988018;28;105126;-61
2021/12/26 04:06:41;;;;;;;14.13;9.97;;;;;;;3.36;100.00;95342.06;5007380;28;102194;-61
2021/12/26 04:09:09;;;;;;;16.47;10.57;;;;;;;3.29;100.00;95343.19;4987166;28;105379;-61
2021/12/26 04:11:39;;;;;;;16.43;10.30;;;;;;;3.34;100.00;95351.97;4987015;28;102345;-61
2021/12/26 04:14:06;;;;;;;17.17;10.27;;;;;;;3.30;100.00;95350.03;4987541;28;103550;-61
2021/12/26 04:16:35;;;;;;;14.17;9.83;;;;;;;3.11;100.00;95357.25;4986769;28;105398;-61
2021/12/26 04:19:02;;;;;;;16.57;10.47;;;;;;;3.12;100.00;95360.69;4988250;28;102013;-61
2021/12/26 04:21:29;;;;;;;16.70;10.07;;;;;;;3.24;100.00;95357.03;4987048;28;104992;-61
2021/12/26 04:24:01;;;;;;;19.60;10.33;;;;;;;3.07;100.00;95357.94;4987361;28;105038;-61
2021/12/26 04:26:28;;;;;;;15.17;9.90;;;;;;;3.20;100.00;95360.31;4990398;28;101873;-61
2021/12/26 04:29:11;;;;;;;17.57;10.53;;;;;;;3.16;100.00;95354.75;4968023;28;105032;-61
2021/12/26 04:31:40;;;;;;;14.73;9.37;;;;;;;3.16;100.00;95351.34;4982942;28;104118;-61
2021/12/26 04:34:07;;;;;;;20.07;10.40;;;;;;;3.19;100.00;95359.53;4971313;28;105452;-61
2021/12/26 04:36:34;;;;;;;17.90;10.37;;;;;;;3.14;100.00;95367.31;5004853;28;105259;-61
2021/12/26 04:39:03;;;;;;;17.20;10.57;;;;;;;3.07;100.00;95366.59;4990609;28;101958;-61
2021/12/26 04:41:30;;;;;;;19.27;10.77;;;;;;;3.14;100.00;95366.50;4990245;28;105112;-61
2021/12/26 04:44:17;;;;;;;20.60;11.20;;;;;;;3.07;100.00;95363.97;4999671;28;102982;-61
2021/12/26 04:47:06;;;;;;;18.27;10.47;;;;;;;3.07;100.00;95368.44;4977029;28;102292;-61
2021/12/26 04:49:35;;;;;;;18.23;10.27;;;;;;;3.06;100.00;95366.84;4993169;28;103711;-61
2021/12/26 04:52:04;;;;;;;17.93;10.50;;;;;;;3.05;100.00;95368.69;4990594;28;101935;-61
2021/12/26 04:55:16;;;;;;;18.60;11.10;;;;;;;3.02;100.00;95371.78;4989964;28;105009;-61
2021/12/26 04:57:43;;;;;;;18.17;10.67;;;;;;;2.99;100.00;95374.03;5022159;27;105197;-61
2021/12/26 05:00:13;;;;;;;18.20;10.20;;;;;;;3.00;100.00;95378.28;5029944;28;101947;-61
2021/12/26 05:02:43;;;;;;;19.37;10.43;;;;;;;3.09;100.00;95382.13;5031602;28;102981;-61
2021/12/26 05:05:53;;;;;;;17.20;10.00;;;;;;;3.11;100.00;95375.63;5063334;27;105064;-61
2021/12/26 05:08:20;;;;;;;20.70;10.10;;;;;;;2.98;100.00;95377.69;5030466;28;101901;-61
2021/12/26 05:10:47;;;;;;;21.13;10.40;;;;;;;2.86;100.00;95372.44;5030407;28;104955;-61
2021/12/26 05:13:14;;;;;;;21.43;10.57;;;;;;;3.02;100.00;95378.84;5032867;28;105625;-61
2021/12/26 05:16:11;;;;;;;21.27;11.10;;;;;;;2.97;100.00;95374.28;5030010;28;105281;-61
2021/12/26 05:18:41;;;;;;;19.57;10.77;;;;;;;2.94;100.00;95374.72;5029397;28;105218;-61
2021/12/26 05:21:08;;;;;;;18.30;10.67;;;;;;;2.99;100.00;95379.28;5029954;28;102006;-61
2021/12/26 05:23:36;;;;;;;19.07;10.93;;;;;;;2.99;100.00;95379.28;5029963;28;104666;-61
2021/12/26 05:29:51;;;;;;;19.97;10.53;;;;;;;2.90;100.00;95376.19;5029712;28;102325;-61
2021/12/26 05:32:18;;;;;;;19.80;10.37;;;;;;;2.90;100.00;95380.66;5029304;28;104976;-61
2021/12/26 05:35:04;;;;;;;23.97;11.40;;;;;;;2.98;100.00;95388.19;5028980;28;105189;-61
2021/12/26 05:37:30;;;;;;;22.00;11.03;;;;;;;3.02;100.00;95389.34;5033351;28;101835;-61
2021/12/26 05:39:58;;;;;;;21.80;11.60;;;;;;;3.02;100.00;95390.16;5029028;28;103674;-61
2021/12/26 05:42:25;;;;;;;20.30;11.07;;;;;;;3.08;100.00;95388.44;5029163;28;101832;-61
2021/12/26 05:45:12;;;;;;;21.43;11.40;;;;;;;3.01;100.00;95393.00;5028781;27;105366;-61
2021/12/26 05:47:54;;;;;;;21.03;11.50;;;;;;;2.88;100.00;95386.13;5027342;28;103858;-61
2021/12/26 05:50:23;;;;;;;22.67;10.67;;;;;;;2.93;100.00;95391.50;5029272;28;101849;-61
2021/12/26 05:52:51;;;;;;;22.00;10.67;;;;;;;2.86;100.00;95396.06;5029200;28;105211;-61
2021/12/26 05:56:08;;;;;;;21.27;10.53;;;;;;;2.70;100.00;95398.53;5028969;28;105623;-61
2021/12/26 05:58:36;;;;;;;22.33;11.17;;;;;;;2.77;100.00;95391.34;5028924;28;103615;-61
2021/12/26 06:01:05;;;;;;;22.03;10.83;;;;;;;2.78;100.00;95398.22;5031607;28;103788;-61
2021/12/26 06:03:34;;;;;;;19.97;11.20;;;;;;;2.72;100.00;95399.91;5029495;28;102104;-61
2021/12/26 06:06:17;;;;;;;20.53;10.53;;;;;;;2.70;100.00;95395.91;5029099;28;103697;-61
2021/12/26 06:08:47;;;;;;;19.50;10.47;;;;;;;2.77;100.00;95397.41;5028837;28;105624;-61
2021/12/26 06:11:14;;;;;;;20.70;11.13;;;;;;;2.76;100.00;95395.00;5029217;28;101995;-61
2021/12/26 06:13:42;;;;;;;25.23;12.37;;;;;;;2.80;100.00;95396.16;5028883;28;104814;-61
2021/12/26 06:16:41;;;;;;;22.13;11.50;;;;;;;2.76;100.00;95389.75;5028169;28;105022;-61
2021/12/26 06:19:19;;;;;;;20.33;12.20;;;;;;;2.85;100.00;95398.91;5029298;28;101841;-61
2021/12/26 06:22:07;;;;;;;20.43;11.73;;;;;;;2.72;100.00;95389.41;5025767;28;102905;-61
2021/12/26 06:25:20;;;;;;;22.50;11.50;;;;;;;2.69;100.00;95394.31;5032691;28;101910;-61
2021/12/26 06:28:08;;;;;;;22.60;11.77;;;;;;;2.76;100.00;95402.88;5014139;28;103475;-61
2021/12/26 06:30:36;;;;;;;19.40;11.03;;;;;;;2.70;100.00;95403.78;5026741;28;102721;-61
2021/12/26 06:33:12;;;;;;;23.13;12.77;;;;;;;2.74;100.00;95404.94;5028993;27;101967;-61
2021/12/26 06:36:02;;;;;;;22.33;12.20;;;;;;;2.68;100.00;95405.84;5018945;27;102456;-61
2021/12/26 06:38:49;;;;;;;23.43;12.60;;;;;;;2.68;100.00;95406.63;5027613;28;102235;-61
2021/12/26 06:41:35;;;;;;;22.00;11.83;;;;;;;2.72;100.00;95402.53;5027027;28;101650;-61
2021/12/26 06:45:07;;;;;;;20.87;12.60;;;;;;;2.68;100.00;95405.84;5030302;28;102025;-61
2021/12/26 06:47:54;;;;;;;19.77;12.47;;;;;;;2.77;100.00;95405.28;5031396;28;103838;-61
2021/12/26 06:50:22;;;;;;;22.60;12.20;;;;;;;2.85;100.00;95409.41;5028282;28;104817;-61
2021/12/26 06:52:50;;;;;;;25.77;12.77;;;;;;;2.74;100.00;95410.19;5027973;28;105028;-61
2021/12/26 06:55:19;;;;;;;21.63;13.27;;;;;;;2.69;100.00;95415.31;5027362;27;101922;-61
2021/12/26 06:57:46;;;;;;;23.20;12.90;;;;;;;2.65;100.00;95412.34;5027608;28;104996;-61
2021/12/26 07:00:15;;;;;;;22.53;13.27;;;;;;;2.47;100.00;95417.66;5027794;28;105040;-61
2021/12/26 07:02:44;;;;;;;20.13;12.93;;;;;;;2.60;100.00;95412.22;5028350;28;102164;-61
2021/12/26 07:05:14;;;;;;;20.70;12.60;;;;;;;2.58;100.00;95413.47;5028165;28;105237;-61
2021/12/26 07:07:47;;;;;;;22.70;12.77;;;;;;;2.58;100.00;95413.47;5028113;28;104825;-61
2021/12/26 07:10:15;;;;;;;22.80;13.67;;;;;;;2.69;100.00;95415.31;5031482;28;101920;-61
2021/12/26 07:12:44;;;;;;;20.20;12.53;;;;;;;2.81;100.00;95424.00;5027256;28;105871;-61
2021/12/26 07:15:41;;;;;;;21.33;12.53;;;;;;;2.82;100.00;95422.97;5049241;27;101849;-61
2021/12/26 07:18:08;;;;;;;24.23;14.47;;;;;;;2.85;100.00;95430.41;5042067;27;104931;-61
2021/12/26 07:20:39;;;;;;;20.13;12.57;;;;;;;2.91;100.00;95427.69;5020489;28;104990;-61
2021/12/26 07:23:24;;;;;;;22.63;13.47;;;;;;;2.88;100.00;95420.25;5026882;28;101746;-61
2021/12/26 07:25:59;;;;;;;22.27;12.90;;;;;;;2.89;100.00;95421.84;5027666;28;104070;-61
2021/12/26 07:28:32;;;;;;;23.90;13.83;;;;;;;2.86;100.00;95427.56;5007490;28;105060;-61
2021/12/26 07:31:08;;;;;;;22.43;13.43;;;;;;;2.84;100.00;95431.44;5024472;28;102188;-61
2021/12/26 07:33:37;;;;;;;24.43;14.00;;;;;;;2.86;100.00;95432.00;5030481;28;103796;-61
2021/12/26 07:36:15;;;;;;;25.27;14.83;;;;;;;2.90;100.00;95427.91;5027704;28;102352;-61
2021/12/26 07:38:45;;;;;;;24.20;15.00;;;;;;;2.82;100.00;95425.59;5025990;27;102397;-61
2021/12/26 07:41:13;;;;;;;25.20;14.47;;;;;;;2.94;100.00;95432.47;5027143;28;105884;-61
2021/12/26 07:43:43;;;;;;;29.93;17.97;;;;;;;2.85;100.00;95433.84;5028066;28;102051;-61
2021/12/26 07:46:32;;;;;;;27.43;16.70;;;;;;;3.03;100.00;95433.75;5026687;28;102044;-61
2021/12/26 07:49:03;;;;;;;31.87;18.40;;;;;;;3.01;100.00;95435.78;5027290;28;105009;-61
2021/12/26 07:51:50;;;;;;;35.43;19.30;;;;;;;2.99;100.00;95437.88;5025775;28;101742;-61
2021/12/26 07:54:39;;;;;;;31.37;17.80;;;;;;;3.03;100.00;95432.94;5007187;27;102288;-61
2021/12/26 07:57:24;;;;;;;26.10;15.53;;;;;;;2.93;100.00;95438.78;5009538;28;105027;-61
2021/12/26 08:00:12;;;;;;;37.47;21.00;;;;;;;3.03;100.00;95446.09;5009644;28;102057;-61
2021/12/26 08:02:59;;;;;;;39.40;22.67;;;;;;;3.10;100.00;95441.50;5025668;27;102412;-61
2021/12/26 08:05:51;;;;;;;35.43;19.00;;;;;;;3.10;100.00;95444.13;5028987;28;101719;-60
2021/12/26 08:08:38;;;;;;;29.80;18.83;;;;;;;3.12;100.00;95447.34;5031433;28;103776;-60
2021/12/26 08:11:05;;;;;;;30.23;17.90;;;;;;;3.09;100.00;95442.53;5030243;28;105422;-60
2021/12/26 08:13:33;;;;;;;29.10;17.17;;;;;;;3.05;100.00;95446.66;5030691;28;101971;-60
2021/12/26 08:16:02;;;;;;;27.40;16.23;;;;;;;2.96;100.00;95453.28;5030568;28;105101;-60
2021/12/26 08:18:29;;;;;;;30.07;18.17;;;;;;;3.12;100.00;95455.25;5030416;28;105599;-60
2021/12/26 08:20:55;;;;;;;29.87;16.50;;;;;;;3.06;100.00;95464.81;5033925;28;101891;-60
2021/12/26 08:23:22;;;;;;;27.57;15.93;;;;;;;3.02;100.00;95455.00;5030142;28;105442;-60
2021/12/26 08:25:58;;;;;;;24.20;15.13;;;;;;;3.03;100.00;95454.78;5030751;28;101911;-60
2021/12/26 08:28:25;;;;;;;27.23;15.27;;;;;;;3.04;100.00;95453.75;5030837;28;104665;-60
2021/12/26 08:30:53;;;;;;;23.77;15.03;;;;;;;3.03;100.00;95456.59;5030094;28;105009;-60
2021/12/26 08:33:22;;;;;;;24.80;14.20;;;;;;;3.00;100.00;95455.22;5030513;28;101953;-60
2021/12/26 08:36:19;;;;;;;24.17;15.27;;;;;;;2.86;100.00;95453.00;5030604;28;106058;-60
2021/12/26 08:38:46;;;;;;;25.07;13.70;;;;;;;2.92;100.00;95457.38;5030175;28;105596;-60
2021/12/26 08:41:13;;;;;;;23.93;14.27;;;;;;;2.94;100.00;95448.25;5033606;28;101964;-60
2021/12/26 08:43:43;;;;;;;22.93;14.60;;;;;;;2.94;100.00;95456.13;5029954;28;105020;-60
2021/12/26 08:46:26;;;;;;;24.97;13.93;;;;;;;2.93;100.00;95458.97;5030149;28;102411;-60
2021/12/26 08:48:55;;;;;;;26.17;14.70;;;;;;;2.95;100.00;95459.56;5032072;28;102591;-60
2021/12/26 08:51:22;;;;;;;20.10;13.33;;;;;;;3.02;100.00;95457.63;5029891;28;104315;-60
2021/12/26 08:53:49;;;;;;;23.87;13.53;;;;;;;3.07;100.00;95450.66;5063828;27;102050;-60
2021/12/26 08:56:18;;;;;;;24.73;14.00;;;;;;;3.02;100.00;95455.81;5030292;28;105120;-60
2021/12/26 08:58:45;;;;;;;24.43;13.50;;;;;;;3.02;100.00;95461.06;5029813;28;105830;-60
2021/12/26 09:01:12;;;;;;;24.10;13.93;;;;;;;2.94;100.00;95465.81;5030017;28;101817;-60
2021/12/26 09:03:40;;;;;;;24.20;14.23;;;;;;;2.70;100.00;95469.41;5034037;28;103899;-60
2021/12/26 09:06:23;;;;;;;25.33;14.20;;;;;;;2.62;100.00;95472.38;5029631;28;102165;-60
2021/12/26 09:08:51;;;;;;;27.10;13.77;;;;;;;2.70;100.00;95470.22;5030268;28;105337;-61
2021/12/26 09:11:18;;;;;;;24.87;14.17;;;;;;;2.64;100.00;95476.38;5029268;28;105500;-63
2021/12/26 09:13:46;;;;;;;26.30;14.03;;;;;;;2.64;100.00;95478.19;5029671;28;101918;-61
2021/12/26 09:16:34;;;;;;;22.63;13.70;;;;;;;2.73;100.00;95482.09;5029928;28;105366;-60
2021/12/26 09:19:01;;;;;;;26.87;14.00;;;;;;;2.70;100.00;95485.97;5028808;28;103914;-62
2021/12/26 09:21:30;;;;;;;27.00;13.77;;;;;;;2.68;100.00;95492.47;5029625;28;101903;-72
2021/12/26 09:23:58;;;;;;;28.07;13.67;;;;;;;2.66;100.00;95489.25;5009685;28;103513;-63
2021/12/26 09:26:26;;;;;;;23.87;13.27;;;;;;;2.71;100.00;95489.38;5033731;28;102668;-60
2021/12/26 09:29:03;;;;;;;25.87;13.57;;;;;;;2.80;100.00;95496.69;5031004;28;102532;-63
2021/12/26 09:31:31;;;;;;;28.23;15.10;;;;;;;2.67;100.00;95490.88;5029281;28;105302;-60
2021/12/26 09:33:58;;;;;;;31.43;14.90;;;;;;;2.74;100.00;95488.94;5029136;28;102213;-62
2021/12/26 09:36:41;;;;;;;29.93;14.33;;;;;;;2.84;100.00;95491.84;5029680;28;104747;-62
2021/12/26 09:39:08;;;;;;;28.37;14.27;;;;;;;2.86;100.00;95492.41;5029244;28;103999;-63
2021/12/26 09:41:36;;;;;;;27.60;14.43;;;;;;;2.94;100.00;95492.88;5029052;28;102018;-63
2021/12/26 09:44:04;;;;;;;29.63;14.43;;;;;;;2.96;100.00;95495.28;5009312;28;105449;-62
2021/12/26 09:46:33;;;;;;;25.57;13.90;;;;;;;2.87;100.00;95494.81;5026898;28;104254;-62
2021/12/26 09:49:00;;;;;;;26.83;14.40;;;;;;;3.02;100.00;95491.75;5032722;28;102014;-61
2021/12/26 09:51:27;;;;;;;24.53;14.27;;;;;;;3.22;100.00;95493.03;5028691;28;103960;-62
2021/12/26 09:53:57;;;;;;;26.27;13.70;;;;;;;3.22;100.00;95494.88;5028899;28;101956;-59
2021/12/26 09:56:28;;;;;;;28.00;14.63;;;;;;;3.41;100.00;95488.50;5029315;28;105711;-62
2021/12/26 09:59:04;;;;;;;25.70;14.07;;;;;;;3.54;100.00;95490.88;5028931;28;105479;-61
2021/12/26 10:01:33;;;;;;;30.07;14.23;;;;;;;3.50;100.00;95487.13;5025564;28;101700;-62
2021/12/26 10:04:05;;;;;;;26.73;14.00;;;;;;;3.64;100.00;95488.50;5030410;28;102354;-61
2021/12/26 10:06:33;;;;;;;25.60;13.67;;;;;;;3.48;100.00;95484.72;5029070;28;104482;-63
2021/12/26 10:09:04;;;;;;;25.87;13.27;;;;;;;3.20;100.00;95486.41;5029316;28;101867;-63
2021/12/26 10:11:33;;;;;;;21.27;12.07;;;;;;;3.13;100.00;95480.47;5032348;28;105348;-63
2021/12/26 10:14:02;;;;;;;20.23;12.00;;;;;;;3.22;100.00;95485.16;5030497;28;101776;-63
2021/12/26 10:16:32;;;;;;;23.80;12.73;;;;;;;3.39;100.00;95485.31;5029015;28;104182;-63
2021/12/26 10:19:00;;;;;;;22.27;12.10;;;;;;;3.65;100.00;95482.22;5028515;28;103785;-60
2021/12/26 10:21:43;;;;;;;19.80;11.97;;;;;;;3.71;100.00;95470.78;5029913;28;102628;-60
2021/12/26 10:24:22;;;;;;;18.53;11.90;;;;;;;3.69;100.00;95472.84;5029327;28;104928;-60
2021/12/26 10:26:51;;;;;;;21.83;12.60;;;;;;;3.72;100.00;95475.00;5028913;28;105410;-60
2021/12/26 10:29:35;;;;;;;22.10;12.10;;;;;;;3.76;100.00;95476.94;5029081;27;101811;-61
2021/12/26 10:32:09;;;;;;;24.43;14.03;;;;;;;3.74;100.00;95465.88;5028752;28;105411;-61
2021/12/26 10:35:02;;;;;;;24.13;14.90;;;;;;;3.71;100.00;95470.78;5031258;28;105148;-63
2021/12/26 10:37:37;;;;;;;18.87;11.80;;;;;;;3.76;100.00;95468.28;5028768;28;105143;-63
2021/12/26 10:40:10;;;;;;;19.27;12.37;;;;;;;3.86;100.00;95476.34;5028120;28;105513;-61
2021/12/26 10:42:40;;;;;;;18.63;12.20;;;;;;;3.91;100.00;95458.88;5028578;28;102218;-60
2021/12/26 10:45:16;;;;;;;17.80;11.87;;;;;;;3.95;100.00;95460.00;5029792;28;102435;-62
2021/12/26 10:47:50;;;;;;;18.13;11.73;;;;;;;4.00;100.00;95456.69;5027766;28;105574;-61
2021/12/26 10:50:19;;;;;;;19.60;12.17;;;;;;;4.10;100.00;95456.88;5028284;28;101840;-61
2021/12/26 10:52:52;;;;;;;20.97;12.67;;;;;;;4.20;100.00;95451.84;5029722;27;102290;-64
2021/12/26 10:55:31;;;;;;;20.23;12.67;;;;;;;4.24;100.00;95460.84;5032918;28;103172;-62
2021/12/26 10:58:23;;;;;;;19.17;11.57;;;;;;;4.28;100.00;95459.34;5029471;28;101955;-62
2021/12/26 11:00:55;;;;;;;18.80;11.53;;;;;;;4.16;100.00;95461.22;5029042;27;103675;-61
2021/12/26 11:03:24;;;;;;;18.40;11.27;;;;;;;4.28;100.00;95454.91;5028400;28;102351;-62
2021/12/26 11:06:01;;;;;;;23.20;13.20;;;;;;;4.56;100.00;95452.25;5029567;27;102449;-62
2021/12/26 11:08:31;;;;;;;19.00;11.87;;;;;;;4.49;100.00;95453.44;5027814;28;105657;-63
2021/12/26 11:11:13;;;;;;;18.23;11.87;;;;;;;4.72;100.00;95451.50;5029358;27;101870;-63
2021/12/26 11:13:40;;;;;;;16.10;11.80;;;;;;;4.53;100.00;95447.47;5011422;28;105016;-63
2021/12/26 11:16:09;;;;;;;16.43;11.23;;;;;;;4.45;100.00;95449.66;5028881;28;102740;-63
2021/12/26 11:18:37;;;;;;;16.50;10.87;;;;;;;4.47;100.00;95447.63;5032964;28;101700;-62
2021/12/26 11:21:06;;;;;;;15.73;10.40;;;;;;;4.46;100.00;95452.06;5028719;27;101897;-62
2021/12/26 11:23:39;;;;;;;16.53;10.70;;;;;;;4.53;100.00;95450.09;5029382;27;101889;-62
2021/12/26 11:30:11;;;;;;;13.70;10.27;;;;;;;4.39;100.00;95455.88;5027430;28;105884;-62
2021/12/26 11:32:42;;;;;;;15.87;10.93;;;;;;;4.36;100.00;95451.88;5008792;28;102483;-62
2021/12/26 11:35:10;;;;;;;13.50;10.53;;;;;;;4.42;100.00;95452.78;5008707;28;105018;-62
2021/12/26 11:37:38;;;;;;;14.77;11.43;;;;;;;4.23;100.00;95451.34;5027543;28;105871;-62
2021/12/26 11:40:36;;;;;;;13.30;10.37;;;;;;;4.27;100.00;95455.91;5028699;28;102997;-62
2021/12/26 11:43:53;;;;;;;15.07;11.70;;;;;;;4.27;100.00;95448.00;5032249;28;102198;-62
2021/12/26 11:47:22;;;;;;;15.43;12.23;;;;;;;4.10;100.00;95449.00;5030099;28;101663;-62
2021/12/26 11:50:29;;;;;;;16.20;10.63;;;;;;;4.17;100.00;95444.41;5013008;28;102047;-62
2021/12/26 11:53:28;;;;;;;15.97;10.70;;;;;;;4.17;100.00;95441.75;5017595;28;103146;-62
2021/12/26 11:56:17;;;;;;;14.17;10.57;;;;;;;4.07;100.00;95439.75;5031395;28;101922;-63
2021/12/26 11:59:14;;;;;;;14.43;10.50;;;;;;;4.19;100.00;95443.13;5032130;28;102485;-62
2021/12/26 12:01:45;;;;;;;12.83;10.20;;;;;;;4.34;100.00;95432.09;5031600;27;102429;-62